createdAt,value
2018-07-16T00:02:18.902Z,99.60
2018-07-16T00:04:46.817Z,99.50
2018-07-16T00:07:14.616Z,99.90
2018-07-16T00:09:42.564Z,99.10
2018-07-16T00:12:10.402Z,99.90
2018-07-16T00:14:39.345Z,99.90
2018-07-16T00:17:08.181Z,99.90
2018-07-16T00:19:36.740Z,99.90
2018-07-16T00:22:05.234Z,99.90
2018-07-16T00:24:33.192Z,99.90
2018-07-16T00:27:02.190Z,99.20
2018-07-16T00:29:30.043Z,99.50
2018-07-16T00:31:58.913Z,99.90
2018-07-16T00:34:26.733Z,99.90
2018-07-16T00:36:54.628Z,99.90
2018-07-16T00:39:22.454Z,99.90
2018-07-16T00:41:52.697Z,99.90
2018-07-16T00:44:20.509Z,99.90
2018-07-16T00:46:48.350Z,99.90
2018-07-16T00:49:17.532Z,99.90
2018-07-16T00:51:45.559Z,99.90
2018-07-16T00:54:13.426Z,99.90
2018-07-16T00:56:42.339Z,99.90
2018-07-16T00:59:10.187Z,99.90
2018-07-16T01:01:43.200Z,99.90
2018-07-16T01:04:11.023Z,99.90
2018-07-16T01:06:51.511Z,99.90
2018-07-16T01:09:21.475Z,99.90
2018-07-16T01:11:49.350Z,99.90
2018-07-16T01:14:17.260Z,99.90
2018-07-16T01:16:49.078Z,99.90
2018-07-16T01:19:16.982Z,99.90
2018-07-16T01:21:44.785Z,99.90
2018-07-16T01:24:13.725Z,99.90
2018-07-16T01:26:41.532Z,99.90
2018-07-16T01:29:10.372Z,99.90
2018-07-16T01:31:38.225Z,99.90
2018-07-16T01:34:06.231Z,99.90
2018-07-16T01:36:34.119Z,99.90
2018-07-16T01:39:02.242Z,99.90
2018-07-16T01:41:31.223Z,99.90
2018-07-16T01:43:59.045Z,99.90
2018-07-16T01:46:29.951Z,99.90
2018-07-16T01:48:57.751Z,99.90
2018-07-16T01:51:25.656Z,99.90
2018-07-16T01:53:53.522Z,99.90
2018-07-16T01:56:21.414Z,99.90
2018-07-16T01:58:49.217Z,99.90
2018-07-16T02:01:17.658Z,99.90
2018-07-16T02:03:45.514Z,99.90
2018-07-16T02:06:13.349Z,99.90
2018-07-16T02:08:42.253Z,99.90
2018-07-16T02:11:10.136Z,99.90
2018-07-16T02:13:39.067Z,99.90
2018-07-16T02:16:06.927Z,99.90
2018-07-16T02:18:34.698Z,99.90
2018-07-16T02:21:03.539Z,99.90
2018-07-16T02:23:31.329Z,99.90
2018-07-16T02:26:01.266Z,99.90
2018-07-16T02:28:29.106Z,99.90
2018-07-16T02:30:56.931Z,99.90
2018-07-16T02:33:24.842Z,99.90
2018-07-16T02:35:52.654Z,99.90
2018-07-16T02:38:20.564Z,99.90
2018-07-16T02:40:48.353Z,99.90
2018-07-16T02:43:16.204Z,99.90
2018-07-16T02:45:44.038Z,99.90
2018-07-16T02:48:11.918Z,99.90
2018-07-16T02:50:39.732Z,99.90
2018-07-16T02:53:09.581Z,99.90
2018-07-16T02:55:37.376Z,99.90
2018-07-16T02:58:05.958Z,99.90
2018-07-16T03:00:33.789Z,99.90
2018-07-16T03:03:02.711Z,99.90
2018-07-16T03:05:30.603Z,99.90
2018-07-16T03:07:58.522Z,99.90
2018-07-16T03:10:26.364Z,99.90
2018-07-16T03:13:01.584Z,99.90
2018-07-16T03:15:29.423Z,99.90
2018-07-16T03:17:57.370Z,99.90
2018-07-16T03:20:37.910Z,99.90
2018-07-16T03:23:05.839Z,99.90
2018-07-16T03:25:33.661Z,99.90
2018-07-16T03:28:01.469Z,99.90
2018-07-16T03:30:34.186Z,99.90
2018-07-16T03:33:01.977Z,99.90
2018-07-16T03:35:30.928Z,99.90
2018-07-16T03:37:58.768Z,99.90
2018-07-16T03:40:26.904Z,99.90
2018-07-16T03:42:54.713Z,99.90
2018-07-16T03:45:23.564Z,99.90
2018-07-16T03:47:52.466Z,99.90
2018-07-16T03:50:20.281Z,99.90
2018-07-16T03:52:49.159Z,99.90
2018-07-16T03:55:16.971Z,99.90
2018-07-16T03:57:53.283Z,99.90
2018-07-16T04:00:21.220Z,99.90
2018-07-16T04:02:49.117Z,99.90
2018-07-16T04:05:16.977Z,99.90
2018-07-16T04:07:45.878Z,99.90
2018-07-16T04:10:13.716Z,99.90
2018-07-16T04:12:41.615Z,99.90
2018-07-16T04:15:09.451Z,99.90
2018-07-16T04:17:37.243Z,99.90
2018-07-16T04:20:05.178Z,99.90
2018-07-16T04:22:33.008Z,99.90
2018-07-16T04:25:01.947Z,99.90
2018-07-16T04:27:29.755Z,99.90
2018-07-16T04:29:57.752Z,99.90
2018-07-16T04:32:25.561Z,99.90
2018-07-16T04:34:54.484Z,99.90
2018-07-16T04:37:22.277Z,99.90
2018-07-16T04:39:50.191Z,99.90
2018-07-16T04:42:18.021Z,99.90
2018-07-16T04:44:45.875Z,99.90
2018-07-16T04:47:14.758Z,99.90
2018-07-16T04:49:42.586Z,99.90
2018-07-16T04:52:10.360Z,99.90
2018-07-16T04:54:38.207Z,99.90
2018-07-16T04:57:06.087Z,99.90
2018-07-16T04:59:34.078Z,99.90
2018-07-16T05:02:01.899Z,99.90
2018-07-16T05:04:29.756Z,99.90
2018-07-16T05:06:57.617Z,99.90
2018-07-16T05:09:25.493Z,99.90
2018-07-16T05:11:53.314Z,99.90
2018-07-16T05:14:21.108Z,99.90
2018-07-16T05:16:49.917Z,99.90
2018-07-16T05:19:17.712Z,99.90
2018-07-16T05:21:45.554Z,99.90
2018-07-16T05:24:13.428Z,99.90
2018-07-16T05:26:41.335Z,99.90
2018-07-16T05:29:09.251Z,99.90
2018-07-16T05:31:37.117Z,99.60
2018-07-16T05:34:04.956Z,99.10
2018-07-16T05:36:32.750Z,95.80
2018-07-16T05:39:00.614Z,95.30
2018-07-16T05:41:28.480Z,95.50
2018-07-16T05:43:57.303Z,95.30
2018-07-16T05:46:25.092Z,92.60
2018-07-16T05:48:52.900Z,91.80
2018-07-16T05:51:20.797Z,90.90
2018-07-16T05:53:48.622Z,89.00
2018-07-16T05:56:16.416Z,88.30
2018-07-16T05:58:44.268Z,86.50
2018-07-16T06:01:12.171Z,87.70
2018-07-16T06:03:40.004Z,82.70
2018-07-16T06:06:07.939Z,83.20
2018-07-16T06:08:35.868Z,82.30
2018-07-16T06:11:03.894Z,82.50
2018-07-16T06:13:31.775Z,80.80
2018-07-16T06:15:59.752Z,80.10
2018-07-16T06:18:27.765Z,79.90
2018-07-16T06:20:55.610Z,80.80
2018-07-16T06:23:23.526Z,78.30
2018-07-16T06:25:51.451Z,75.80
2018-07-16T06:28:19.272Z,75.10
2018-07-16T06:30:47.063Z,76.00
2018-07-16T06:33:14.907Z,76.10
2018-07-16T06:35:42.715Z,75.20
2018-07-16T06:38:10.528Z,74.80
2018-07-16T06:40:38.360Z,74.80
2018-07-16T06:43:06.196Z,73.20
2018-07-16T06:45:33.988Z,73.90
2018-07-16T06:48:01.777Z,71.40
2018-07-16T06:50:30.572Z,74.30
2018-07-16T06:52:58.444Z,72.80
2018-07-16T06:55:26.326Z,74.10
2018-07-16T06:57:54.161Z,73.50
2018-07-16T07:00:22.335Z,73.20
2018-07-16T07:02:50.105Z,72.90
2018-07-16T07:05:17.900Z,73.60
2018-07-16T07:07:45.662Z,68.60
2018-07-16T07:10:13.460Z,66.10
2018-07-16T07:12:41.298Z,68.30
2018-07-16T07:15:09.108Z,66.20
2018-07-16T07:17:36.890Z,67.00
2018-07-16T07:20:04.755Z,68.50
2018-07-16T07:22:32.513Z,66.60
2018-07-16T07:25:00.301Z,66.40
2018-07-16T07:27:29.220Z,68.40
2018-07-16T07:29:57.014Z,67.80
2018-07-16T07:32:24.889Z,66.20
2018-07-16T07:34:52.674Z,67.40
2018-07-16T07:37:20.465Z,66.30
2018-07-16T07:39:48.235Z,66.30
2018-07-16T07:42:16.017Z,65.40
2018-07-16T07:44:43.913Z,66.00
2018-07-16T07:47:11.929Z,63.80
2018-07-16T07:49:39.772Z,62.20
2018-07-16T07:52:07.527Z,62.70
2018-07-16T07:54:35.383Z,59.50
2018-07-16T07:57:03.291Z,58.80
2018-07-16T07:59:31.095Z,60.70
2018-07-16T08:01:59.029Z,60.50
2018-07-16T08:04:26.791Z,61.40
2018-07-16T08:07:00.241Z,59.50
2018-07-16T08:09:28.101Z,60.00
2018-07-16T08:11:55.889Z,59.20
2018-07-16T08:14:23.745Z,58.10
2018-07-16T08:16:51.724Z,58.80
2018-07-16T08:19:19.687Z,57.90
2018-07-16T08:21:47.574Z,58.90
2018-07-16T08:24:16.422Z,59.60
2018-07-16T08:26:44.317Z,56.90
2018-07-16T08:29:12.216Z,58.40
2018-07-16T08:31:40.037Z,56.80
2018-07-16T08:34:08.989Z,57.00
2018-07-16T08:36:38.485Z,53.50
2018-07-16T08:39:06.445Z,55.90
2018-07-16T08:41:34.422Z,56.00
2018-07-16T08:44:02.600Z,55.00
2018-07-16T08:46:30.873Z,53.00
2018-07-16T08:48:58.941Z,53.70
2018-07-16T08:51:26.773Z,54.30
2018-07-16T08:53:56.704Z,54.40
2018-07-16T08:56:24.603Z,54.60
2018-07-16T08:58:52.503Z,53.70
2018-07-16T09:01:20.421Z,53.30
2018-07-16T09:03:48.324Z,51.50
2018-07-16T09:06:16.191Z,51.00
2018-07-16T09:08:46.051Z,51.40
2018-07-16T09:11:13.950Z,49.60
2018-07-16T09:13:41.780Z,48.70
2018-07-16T09:16:09.663Z,48.00
2018-07-16T09:18:37.450Z,45.70
2018-07-16T09:21:05.323Z,44.90
2018-07-16T09:23:33.212Z,47.30
2018-07-16T09:26:01.326Z,47.50
2018-07-16T09:28:29.216Z,47.90
2018-07-16T09:30:57.314Z,48.90
2018-07-16T09:33:25.250Z,47.30
2018-07-16T09:35:53.171Z,47.90
2018-07-16T09:38:21.044Z,46.50
2018-07-16T09:40:48.856Z,45.60
2018-07-16T09:43:16.680Z,44.20
2018-07-16T09:45:44.539Z,45.10
2018-07-16T09:48:12.352Z,45.10
2018-07-16T09:50:40.127Z,45.80
2018-07-16T09:53:07.880Z,45.20
2018-07-16T09:55:35.696Z,43.90
2018-07-16T09:58:03.587Z,40.40
2018-07-16T10:00:37.059Z,40.70
2018-07-16T10:03:04.897Z,42.00
2018-07-16T10:05:32.718Z,40.80
2018-07-16T10:08:00.490Z,40.60
2018-07-16T10:10:29.410Z,38.90
2018-07-16T10:12:57.250Z,41.70
2018-07-16T10:15:25.168Z,40.40
2018-07-16T10:17:53.035Z,41.10
2018-07-16T10:20:20.969Z,41.50
2018-07-16T10:22:48.631Z,41.20
2018-07-16T10:25:16.402Z,40.90
2018-07-16T10:27:44.210Z,41.80
2018-07-16T10:30:12.815Z,41.90
2018-07-16T10:32:40.652Z,42.70
2018-07-16T10:35:08.430Z,43.30
2018-07-16T10:37:37.289Z,43.10
2018-07-16T10:40:05.088Z,43.20
2018-07-16T10:42:32.879Z,43.60
2018-07-16T10:45:00.659Z,42.70
2018-07-16T10:47:28.485Z,42.40
2018-07-16T10:49:56.314Z,41.00
2018-07-16T10:52:24.106Z,40.20
2018-07-16T10:54:51.915Z,40.60
2018-07-16T10:57:19.739Z,39.60
2018-07-16T10:59:48.633Z,41.50
2018-07-16T11:02:16.428Z,40.50
2018-07-16T11:04:44.296Z,40.20
2018-07-16T11:07:12.081Z,39.50
2018-07-16T11:09:39.863Z,39.60
2018-07-16T11:12:07.715Z,39.30
2018-07-16T11:14:36.550Z,36.90
2018-07-16T11:17:04.400Z,36.30
2018-07-16T11:19:32.228Z,36.80
2018-07-16T11:22:00.057Z,34.80
2018-07-16T11:24:27.891Z,33.60
2018-07-16T11:26:55.686Z,33.90
2018-07-16T11:29:23.468Z,35.10
2018-07-16T11:31:52.299Z,34.60
2018-07-16T11:34:20.130Z,36.20
2018-07-16T11:36:48.957Z,35.60
2018-07-16T11:39:16.768Z,36.30
2018-07-16T11:41:44.580Z,37.80
2018-07-16T11:44:12.397Z,39.30
2018-07-16T11:46:40.223Z,38.70
2018-07-16T11:49:08.016Z,38.90
2018-07-16T11:51:35.814Z,38.80
2018-07-16T11:54:03.663Z,39.30
2018-07-16T11:56:31.476Z,39.40
2018-07-16T11:58:59.329Z,39.80
2018-07-16T12:01:27.097Z,41.90
2018-07-16T12:03:54.904Z,41.30
2018-07-16T12:06:22.730Z,41.50
2018-07-16T12:08:50.960Z,41.90
2018-07-16T12:11:18.741Z,40.50
2018-07-16T12:13:46.536Z,39.80
2018-07-16T12:16:14.334Z,37.70
2018-07-16T12:18:42.120Z,37.60
2018-07-16T12:21:10.047Z,36.00
2018-07-16T12:23:37.849Z,34.90
2018-07-16T12:26:05.610Z,35.50
2018-07-16T12:28:33.409Z,35.80
2018-07-16T12:31:01.196Z,35.40
2018-07-16T12:33:28.933Z,36.20
2018-07-16T12:35:56.704Z,36.90
2018-07-16T12:38:24.508Z,37.70
2018-07-16T12:40:52.490Z,37.60
2018-07-16T12:43:21.326Z,38.70
2018-07-16T12:45:49.907Z,38.90
2018-07-16T12:48:18.643Z,39.70
2018-07-16T12:50:46.454Z,39.20
2018-07-16T12:53:14.262Z,37.60
2018-07-16T12:55:42.077Z,37.00
2018-07-16T12:58:09.897Z,38.10
2018-07-16T13:00:37.688Z,39.40
2018-07-16T13:03:05.542Z,38.70
2018-07-16T13:05:34.380Z,38.40
2018-07-16T13:08:02.195Z,38.60
2018-07-16T13:10:31.038Z,38.20
2018-07-16T13:12:59.180Z,39.80
2018-07-16T13:15:27.036Z,41.80
2018-07-16T13:17:54.824Z,40.50
2018-07-16T13:20:22.580Z,41.90
2018-07-16T13:22:50.423Z,39.10
2018-07-16T13:25:18.231Z,37.40
2018-07-16T13:27:46.052Z,35.70
2018-07-16T13:30:13.894Z,32.10
2018-07-16T13:32:41.860Z,33.60
2018-07-16T13:35:09.661Z,33.10
2018-07-16T13:37:37.921Z,32.00
2018-07-16T13:40:05.718Z,30.90
2018-07-16T13:42:34.774Z,30.90
2018-07-16T13:45:02.637Z,33.40
2018-07-16T13:47:30.558Z,31.50
2018-07-16T13:49:58.471Z,33.40
2018-07-16T13:52:26.313Z,32.30
2018-07-16T13:54:54.114Z,32.60
2018-07-16T13:57:21.930Z,33.80
2018-07-16T13:59:50.037Z,34.90
2018-07-16T14:02:17.871Z,34.20
2018-07-16T14:04:45.906Z,32.60
2018-07-16T14:07:13.791Z,32.80
2018-07-16T14:09:42.599Z,32.70
2018-07-16T14:12:10.538Z,32.10
2018-07-16T14:14:38.332Z,33.30
2018-07-16T14:17:06.194Z,33.90
2018-07-16T14:19:35.122Z,35.40
2018-07-16T14:22:02.952Z,35.40
2018-07-16T14:24:35.277Z,37.30
2018-07-16T14:27:03.108Z,37.10
2018-07-16T14:29:31.006Z,37.10
2018-07-16T14:31:58.819Z,37.30
2018-07-16T14:34:26.644Z,35.60
2018-07-16T14:36:54.528Z,34.30
2018-07-16T14:39:22.435Z,35.50
2018-07-16T14:41:50.549Z,37.30
2018-07-16T14:44:18.355Z,39.40
2018-07-16T14:46:46.173Z,40.30
2018-07-16T14:49:14.038Z,40.40
2018-07-16T14:51:41.858Z,41.00
2018-07-16T14:54:09.677Z,41.00
2018-07-16T14:56:37.527Z,40.40
2018-07-16T14:59:05.384Z,40.60
2018-07-16T15:01:33.330Z,40.60
2018-07-16T15:04:01.195Z,40.90
2018-07-16T15:06:29.087Z,41.20
2018-07-16T15:08:56.926Z,41.60
2018-07-16T15:11:24.745Z,42.10
2018-07-16T15:13:52.690Z,39.30
2018-07-16T15:16:20.498Z,38.90
2018-07-16T15:18:48.333Z,38.70
2018-07-16T15:21:18.501Z,39.00
2018-07-16T15:23:46.083Z,40.20
2018-07-16T15:26:13.942Z,40.60
2018-07-16T15:28:41.867Z,40.90
2018-07-16T15:31:10.731Z,42.20
2018-07-16T15:33:38.572Z,42.10
2018-07-16T15:36:06.427Z,42.20
2018-07-16T15:38:34.214Z,43.10
2018-07-16T15:41:02.096Z,44.00
2018-07-16T15:43:29.938Z,43.00
2018-07-16T15:45:57.739Z,43.50
2018-07-16T15:48:25.647Z,43.70
2018-07-16T15:50:53.464Z,43.80
2018-07-16T15:53:21.328Z,43.70
2018-07-16T15:55:49.211Z,45.20
2018-07-16T15:58:17.130Z,48.00
2018-07-16T16:00:44.954Z,50.20
2018-07-16T16:03:13.491Z,51.70
2018-07-16T16:05:42.191Z,53.60
2018-07-16T16:08:10.107Z,60.80
2018-07-16T16:10:37.992Z,76.70
2018-07-16T16:13:06.157Z,78.30
2018-07-16T16:15:34.007Z,80.10
2018-07-16T16:18:01.894Z,85.00
2018-07-16T16:20:30.484Z,86.30
2018-07-16T16:22:58.890Z,83.70
2018-07-16T16:25:28.577Z,81.20
2018-07-16T16:27:56.809Z,80.90
2018-07-16T16:30:26.856Z,76.40
2018-07-16T16:32:54.769Z,77.10
2018-07-16T16:35:23.742Z,74.30
2018-07-16T16:37:51.691Z,76.50
2018-07-16T16:40:19.561Z,78.10
2018-07-16T16:42:47.450Z,74.70
2018-07-16T16:45:15.414Z,77.20
2018-07-16T16:47:43.341Z,79.70
2018-07-16T16:50:11.219Z,82.70
2018-07-16T16:52:39.022Z,84.20
2018-07-16T16:55:06.878Z,87.80
2018-07-16T16:57:34.721Z,91.80
2018-07-16T17:00:02.562Z,92.80
2018-07-16T17:02:30.392Z,94.70
2018-07-16T17:04:58.272Z,96.00
2018-07-16T17:07:26.165Z,97.30
2018-07-16T17:09:53.991Z,97.00
2018-07-16T17:12:21.836Z,96.00
2018-07-16T17:14:49.669Z,92.50
2018-07-16T17:17:17.456Z,93.60
2018-07-16T17:19:45.334Z,94.50
2018-07-16T17:22:13.201Z,95.20
2018-07-16T17:24:41.006Z,94.00
2018-07-16T17:27:09.813Z,94.70
2018-07-16T17:29:37.666Z,95.40
2018-07-16T17:32:05.534Z,95.40
2018-07-16T17:34:33.349Z,95.80
2018-07-16T17:37:01.210Z,95.90
2018-07-16T17:39:29.100Z,96.10
2018-07-16T17:41:56.958Z,96.00
2018-07-16T17:44:24.843Z,95.30
2018-07-16T17:46:52.677Z,95.00
2018-07-16T17:49:21.154Z,95.20
2018-07-16T17:51:48.996Z,94.90
2018-07-16T17:54:16.744Z,94.30
2018-07-16T17:56:44.583Z,94.30
2018-07-16T17:59:12.477Z,93.40
2018-07-16T18:01:40.365Z,93.90
2018-07-16T18:04:08.172Z,93.70
2018-07-16T18:06:36.090Z,93.10
2018-07-16T18:09:06.147Z,92.20
2018-07-16T18:11:33.975Z,92.30
2018-07-16T18:14:01.939Z,92.70
2018-07-16T18:16:29.873Z,92.40
2018-07-16T18:18:57.739Z,92.10
2018-07-16T18:21:25.692Z,90.80
2018-07-16T18:23:53.696Z,91.00
2018-07-16T18:26:21.802Z,90.80
2018-07-16T18:28:49.691Z,90.50
2018-07-16T18:31:17.653Z,90.70
2018-07-16T18:33:45.514Z,90.50
2018-07-16T18:36:13.418Z,90.60
2018-07-16T18:38:41.283Z,90.40
2018-07-16T18:41:09.126Z,90.70
2018-07-16T18:43:36.956Z,90.90
2018-07-16T18:46:04.851Z,90.90
2018-07-16T18:48:32.726Z,91.20
2018-07-16T18:51:00.652Z,91.50
2018-07-16T18:53:28.517Z,91.60
2018-07-16T18:55:56.383Z,91.40
2018-07-16T18:58:24.356Z,91.60
2018-07-16T19:00:52.180Z,91.30
2018-07-16T19:03:20.134Z,91.00
2018-07-16T19:05:48.033Z,90.80
2018-07-16T19:08:15.933Z,91.00
2018-07-16T19:10:43.845Z,91.10
2018-07-16T19:13:11.659Z,91.60
2018-07-16T19:15:40.516Z,92.10
2018-07-16T19:18:09.491Z,92.10
2018-07-16T19:20:37.388Z,92.50
2018-07-16T19:23:05.353Z,92.60
2018-07-16T19:25:33.214Z,93.00
2018-07-16T19:28:00.956Z,93.10
2018-07-16T19:30:28.813Z,93.10
2018-07-16T19:32:56.717Z,93.20
2018-07-16T19:35:24.840Z,93.20
2018-07-16T19:37:53.467Z,93.10
2018-07-16T19:40:22.445Z,93.40
2018-07-16T19:42:50.369Z,93.20
2018-07-16T19:45:18.234Z,93.20
2018-07-16T19:47:46.148Z,93.30
2018-07-16T19:50:14.039Z,93.90
2018-07-16T19:52:41.905Z,93.60
2018-07-16T19:55:09.836Z,93.50
2018-07-16T19:57:37.775Z,93.50
2018-07-16T20:00:06.158Z,93.50
2018-07-16T20:02:35.011Z,93.50
2018-07-16T20:05:02.941Z,92.80
2018-07-16T20:07:30.775Z,92.80
2018-07-16T20:09:58.588Z,92.50
2018-07-16T20:12:28.887Z,92.60
2018-07-16T20:14:57.104Z,92.60
2018-07-16T20:17:25.014Z,92.50
2018-07-16T20:19:52.924Z,92.60
2018-07-16T20:22:20.834Z,92.90
2018-07-16T20:24:48.669Z,93.20
2018-07-16T20:27:16.575Z,93.60
2018-07-16T20:29:45.575Z,94.00
2018-07-16T20:32:13.533Z,94.10
2018-07-16T20:34:41.450Z,94.30
2018-07-16T20:37:09.432Z,94.00
2018-07-16T20:39:37.679Z,94.30
2018-07-16T20:42:05.513Z,94.80
2018-07-16T20:44:33.409Z,94.30
2018-07-16T20:47:01.185Z,94.80
2018-07-16T20:49:28.993Z,94.40
2018-07-16T20:51:58.011Z,94.70
2018-07-16T20:54:25.865Z,95.10
2018-07-16T20:56:53.676Z,95.40
2018-07-16T20:59:21.540Z,95.50
2018-07-16T21:01:49.379Z,95.90
2018-07-16T21:04:17.524Z,96.20
2018-07-16T21:06:45.544Z,96.10
2018-07-16T21:09:13.469Z,96.90
2018-07-16T21:11:43.490Z,97.00
2018-07-16T21:14:11.318Z,96.80
2018-07-16T21:16:39.250Z,96.50
2018-07-16T21:19:07.096Z,97.10
2018-07-16T21:21:34.925Z,97.00
2018-07-16T21:24:02.835Z,97.70
2018-07-16T21:26:31.662Z,96.90
2018-07-16T21:28:59.515Z,97.70
2018-07-16T21:31:27.352Z,97.20
2018-07-16T21:33:55.195Z,97.20
2018-07-16T21:36:23.034Z,97.10
2018-07-16T21:38:50.892Z,97.30
2018-07-16T21:41:18.750Z,97.90
2018-07-16T21:43:46.585Z,97.40
2018-07-16T21:46:14.422Z,97.70
2018-07-16T21:48:42.244Z,97.60
2018-07-16T21:51:11.090Z,98.20
2018-07-16T21:53:38.912Z,98.40
2018-07-16T21:56:06.736Z,98.10
2018-07-16T21:58:34.540Z,98.10
2018-07-16T22:01:02.368Z,98.10
2018-07-16T22:03:31.188Z,98.70
2018-07-16T22:05:58.977Z,97.70
2018-07-16T22:08:26.783Z,97.70
2018-07-16T22:10:54.576Z,98.30
2018-07-16T22:13:22.370Z,98.70
2018-07-16T22:15:50.181Z,98.30
2018-07-16T22:18:17.976Z,98.20
2018-07-16T22:20:45.823Z,98.80
2018-07-16T22:23:13.616Z,98.90
2018-07-16T22:25:41.418Z,99.00
2018-07-16T22:28:09.190Z,99.20
2018-07-16T22:30:37.111Z,99.70
2018-07-16T22:33:05.290Z,99.10
2018-07-16T22:35:33.120Z,98.80
2018-07-16T22:38:00.925Z,98.80
2018-07-16T22:40:28.745Z,99.40
2018-07-16T22:42:56.549Z,99.50
2018-07-16T22:45:25.338Z,99.40
2018-07-16T22:48:55.950Z,99.70
2018-07-16T22:51:23.780Z,99.20
2018-07-16T22:53:51.567Z,99.50
2018-07-16T22:56:19.363Z,99.00
2018-07-16T22:58:47.222Z,99.60
2018-07-16T23:01:14.976Z,99.80
2018-07-16T23:03:42.743Z,98.70
2018-07-16T23:06:10.520Z,99.50
2018-07-16T23:08:38.304Z,99.10
2018-07-16T23:11:06.085Z,98.30
2018-07-16T23:13:33.860Z,98.40
2018-07-16T23:16:01.672Z,98.80
2018-07-16T23:18:29.453Z,98.10
2018-07-16T23:20:57.286Z,98.70
2018-07-16T23:23:25.090Z,98.90
2018-07-16T23:25:52.880Z,97.80
2018-07-16T23:28:21.613Z,97.70
2018-07-16T23:30:49.433Z,97.30
2018-07-16T23:33:17.264Z,97.40
2018-07-16T23:35:44.990Z,97.50
2018-07-16T23:38:12.756Z,96.30
2018-07-16T23:40:40.520Z,96.80
2018-07-16T23:43:08.325Z,96.50
2018-07-16T23:45:36.114Z,96.20
2018-07-16T23:48:04.110Z,96.90
2018-07-16T23:50:31.896Z,96.10
2018-07-16T23:52:59.713Z,96.30
2018-07-16T23:55:27.497Z,96.60
2018-07-16T23:57:55.250Z,96.30
